Lemitar, New Mexico
Current Conditions -  °F | °C
As of 3:35 PM on Monday 20 Oct 2014 (Local Time) from KONM Reporting Station
Overcast Overcast  
Wind Chill: 64°   Ceiling: 7000
Heat Index: 64°   Visibility: 10mi
Dew Point: 51°   Wind: 16mph
Humidity: 61%   Direction: 70°ENE
Pressure: 30.11"   Gusts: 25mph
Location:  34.16°N, 106.91°W
Report Text: KONM 202135Z AUTO 07014G22KT 10SM BKN070 BKN080 OVC090 18/10 A3011 RMK AO2 T01800104
Loading
Personal Weather Stations






























Interactive Weather Map New forecast layout! Learn more

10-Day Weather Forecast

Advertisements
Track Severe Weather on mobile